EGPN/DND METAR and TAF weather

Enter ICAO airport designator
Station Type Date Time Source
EGPN METAR 2019/10/20 19:20 UTC NOAA

EGPN 201920Z VRB03KT 9999 FEW030 07/04 Q1021


Station Type Date Time Source
EGPN Decoded METAR 2019/10/20 19:20 UTC NOAA

Dundee / Riverside, United Kingdom (EGPN) 56-27N 003-01W
Oct 20, 2019 - 03:20 PM EDT / 2019.10.20 1920 UTC
Wind: Variable at 3 MPH (3 KT):0
Visibility: greater than 7 mile(s):0
Sky conditions: mostly clear
Temperature: 44 F (7 C)
Dew Point: 39 F (4 C)
Relative Humidity: 81%
Pressure (altimeter): 30.15 in. Hg (1021 hPa)
ob: EGPN 201920Z VRB03KT 9999 FEW030 07/04 Q1021
cycle: 19

Station Type Date Time Source
EGPN TAF 2019/01/15 18:56 UTC NOAA

TAF EGPN 151750Z 1518/1621 CNL

Example: see airport list